sensor_id;sensor_type;location;lat;lon;timestamp;P1;durP1;ratioP1;P2;durP2;ratioP2
23952;SDS011;12163;49.316;6.092;2022-07-25T00:01:15;8.98;;;4.40;;
23952;SDS011;12163;49.316;6.092;2022-07-25T00:03:45;10.27;;;4.00;;
23952;SDS011;12163;49.316;6.092;2022-07-25T00:06:13;17.27;;;4.10;;
23952;SDS011;12163;49.316;6.092;2022-07-25T00:08:43;14.40;;;4.93;;
23952;SDS011;12163;49.316;6.092;2022-07-25T00:11:10;13.32;;;4.20;;
23952;SDS011;12163;49.316;6.092;2022-07-25T00:13:36;10.05;;;3.97;;
23952;SDS011;12163;49.316;6.092;2022-07-25T00:16:03;8.90;;;3.67;;
23952;SDS011;12163;49.316;6.092;2022-07-25T00:18:30;5.53;;;4.00;;
23952;SDS011;12163;49.316;6.092;2022-07-25T00:20:57;7.78;;;4.20;;
23952;SDS011;12163;49.316;6.092;2022-07-25T00:23:24;8.73;;;4.63;;
23952;SDS011;12163;49.316;6.092;2022-07-25T00:25:50;4.97;;;3.95;;
23952;SDS011;12163;49.316;6.092;2022-07-25T00:28:17;6.07;;;4.15;;
23952;SDS011;12163;49.316;6.092;2022-07-25T00:30:44;6.00;;;4.07;;
23952;SDS011;12163;49.316;6.092;2022-07-25T00:33:11;7.10;;;4.45;;
23952;SDS011;12163;49.316;6.092;2022-07-25T00:35:38;6.43;;;4.43;;
23952;SDS011;12163;49.316;6.092;2022-07-25T00:38:05;7.00;;;4.70;;
23952;SDS011;12163;49.316;6.092;2022-07-25T00:40:31;7.22;;;4.20;;
23952;SDS011;12163;49.316;6.092;2022-07-25T00:42:58;7.97;;;4.13;;
23952;SDS011;12163;49.316;6.092;2022-07-25T00:45:25;10.38;;;4.18;;
23952;SDS011;12163;49.316;6.092;2022-07-25T00:47:51;6.90;;;4.05;;
23952;SDS011;12163;49.316;6.092;2022-07-25T00:50:18;4.88;;;4.13;;
23952;SDS011;12163;49.316;6.092;2022-07-25T00:52:45;6.00;;;4.00;;
23952;SDS011;12163;49.316;6.092;2022-07-25T00:55:11;11.23;;;4.25;;
23952;SDS011;12163;49.316;6.092;2022-07-25T00:57:38;5.38;;;4.00;;
23952;SDS011;12163;49.316;6.092;2022-07-25T01:00:06;8.48;;;4.10;;
23952;SDS011;12163;49.316;6.092;2022-07-25T01:02:34;8.43;;;4.53;;
23952;SDS011;12163;49.316;6.092;2022-07-25T01:05:02;6.53;;;4.40;;
23952;SDS011;12163;49.316;6.092;2022-07-25T01:07:29;8.90;;;4.95;;
23952;SDS011;12163;49.316;6.092;2022-07-25T01:09:56;7.57;;;4.53;;
23952;SDS011;12163;49.316;6.092;2022-07-25T01:12:25;6.45;;;4.30;;
23952;SDS011;12163;49.316;6.092;2022-07-25T01:14:52;7.28;;;4.70;;
23952;SDS011;12163;49.316;6.092;2022-07-25T01:17:18;5.78;;;4.47;;
23952;SDS011;12163;49.316;6.092;2022-07-25T01:19:45;7.63;;;4.57;;
23952;SDS011;12163;49.316;6.092;2022-07-25T01:22:12;8.32;;;4.80;;
23952;SDS011;12163;49.316;6.092;2022-07-25T01:24:39;5.57;;;4.35;;
23952;SDS011;12163;49.316;6.092;2022-07-25T01:27:05;6.30;;;4.35;;
23952;SDS011;12163;49.316;6.092;2022-07-25T01:29:32;9.43;;;4.78;;
23952;SDS011;12163;49.316;6.092;2022-07-25T01:32:01;6.28;;;4.63;;
23952;SDS011;12163;49.316;6.092;2022-07-25T01:34:27;10.77;;;5.13;;
23952;SDS011;12163;49.316;6.092;2022-07-25T01:36:54;6.15;;;4.65;;
23952;SDS011;12163;49.316;6.092;2022-07-25T01:39:21;6.53;;;4.40;;
23952;SDS011;12163;49.316;6.092;2022-07-25T01:41:47;7.20;;;4.72;;
23952;SDS011;12163;49.316;6.092;2022-07-25T01:44:14;6.35;;;4.70;;
23952;SDS011;12163;49.316;6.092;2022-07-25T01:46:42;6.93;;;4.13;;
23952;SDS011;12163;49.316;6.092;2022-07-25T01:51:35;8.32;;;4.47;;
23952;SDS011;12163;49.316;6.092;2022-07-25T01:54:02;7.70;;;5.38;;
23952;SDS011;12163;49.316;6.092;2022-07-25T01:56:34;8.63;;;4.90;;
23952;SDS011;12163;49.316;6.092;2022-07-25T01:59:01;7.63;;;4.38;;
23952;SDS011;12163;49.316;6.092;2022-07-25T02:01:27;8.55;;;4.57;;
23952;SDS011;12163;49.316;6.092;2022-07-25T02:03:54;7.55;;;4.68;;
23952;SDS011;12163;49.316;6.092;2022-07-25T02:06:20;11.13;;;4.95;;
23952;SDS011;12163;49.316;6.092;2022-07-25T02:08:47;8.65;;;4.65;;
23952;SDS011;12163;49.316;6.092;2022-07-25T02:11:15;8.30;;;4.45;;
23952;SDS011;12163;49.316;6.092;2022-07-25T02:13:41;6.28;;;4.80;;
23952;SDS011;12163;49.316;6.092;2022-07-25T02:16:08;9.25;;;4.57;;
23952;SDS011;12163;49.316;6.092;2022-07-25T02:21:01;6.18;;;4.60;;
23952;SDS011;12163;49.316;6.092;2022-07-25T02:23:39;7.65;;;4.60;;
23952;SDS011;12163;49.316;6.092;2022-07-25T02:26:06;8.73;;;4.38;;
23952;SDS011;12163;49.316;6.092;2022-07-25T02:28:33;8.45;;;4.60;;
23952;SDS011;12163;49.316;6.092;2022-07-25T02:30:59;7.03;;;4.72;;
23952;SDS011;12163;49.316;6.092;2022-07-25T02:33:26;9.32;;;4.38;;
23952;SDS011;12163;49.316;6.092;2022-07-25T02:35:53;11.70;;;4.50;;
23952;SDS011;12163;49.316;6.092;2022-07-25T02:38:19;9.60;;;4.55;;
23952;SDS011;12163;49.316;6.092;2022-07-25T02:40:47;10.48;;;4.63;;
23952;SDS011;12163;49.316;6.092;2022-07-25T02:43:15;7.55;;;4.90;;
23952;SDS011;12163;49.316;6.092;2022-07-25T02:45:42;7.32;;;4.53;;
23952;SDS011;12163;49.316;6.092;2022-07-25T02:48:09;6.35;;;4.80;;
23952;SDS011;12163;49.316;6.092;2022-07-25T02:50:35;5.55;;;4.82;;
23952;SDS011;12163;49.316;6.092;2022-07-25T02:53:02;10.55;;;4.90;;
23952;SDS011;12163;49.316;6.092;2022-07-25T02:55:30;11.35;;;4.78;;
23952;SDS011;12163;49.316;6.092;2022-07-25T02:57:57;6.85;;;4.60;;
23952;SDS011;12163;49.316;6.092;2022-07-25T03:00:24;5.82;;;4.60;;
23952;SDS011;12163;49.316;6.092;2022-07-25T03:02:50;7.10;;;4.53;;
23952;SDS011;12163;49.316;6.092;2022-07-25T03:05:17;6.40;;;4.57;;
23952;SDS011;12163;49.316;6.092;2022-07-25T03:07:43;7.22;;;4.88;;
23952;SDS011;12163;49.316;6.092;2022-07-25T03:12:38;5.78;;;4.43;;
23952;SDS011;12163;49.316;6.092;2022-07-25T03:19:59;9.15;;;5.05;;
23952;SDS011;12163;49.316;6.092;2022-07-25T03:22:26;5.82;;;4.90;;
23952;SDS011;12163;49.316;6.092;2022-07-25T03:27:19;7.00;;;4.90;;
23952;SDS011;12163;49.316;6.092;2022-07-25T03:29:45;12.45;;;4.78;;
23952;SDS011;12163;49.316;6.092;2022-07-25T03:32:12;9.60;;;4.82;;
23952;SDS011;12163;49.316;6.092;2022-07-25T03:34:39;8.02;;;4.43;;
23952;SDS011;12163;49.316;6.092;2022-07-25T03:37:05;10.55;;;4.95;;
23952;SDS011;12163;49.316;6.092;2022-07-25T03:39:32;7.22;;;5.07;;
23952;SDS011;12163;49.316;6.092;2022-07-25T03:41:59;8.07;;;5.22;;
23952;SDS011;12163;49.316;6.092;2022-07-25T03:44:25;7.97;;;5.28;;
23952;SDS011;12163;49.316;6.092;2022-07-25T03:46:52;8.77;;;5.07;;
23952;SDS011;12163;49.316;6.092;2022-07-25T03:49:19;9.85;;;5.03;;
23952;SDS011;12163;49.316;6.092;2022-07-25T03:51:45;11.27;;;5.55;;
23952;SDS011;12163;49.316;6.092;2022-07-25T03:54:12;10.27;;;5.32;;
23952;SDS011;12163;49.316;6.092;2022-07-25T03:59:10;8.40;;;4.78;;
23952;SDS011;12163;49.316;6.092;2022-07-25T04:01:39;7.32;;;4.93;;
23952;SDS011;12163;49.316;6.092;2022-07-25T04:04:06;9.15;;;5.13;;
23952;SDS011;12163;49.316;6.092;2022-07-25T04:06:33;9.15;;;4.88;;
23952;SDS011;12163;49.316;6.092;2022-07-25T04:09:00;9.65;;;5.25;;
23952;SDS011;12163;49.316;6.092;2022-07-25T04:11:27;8.32;;;5.35;;
23952;SDS011;12163;49.316;6.092;2022-07-25T04:13:56;11.80;;;5.35;;
23952;SDS011;12163;49.316;6.092;2022-07-25T04:16:23;9.65;;;5.30;;
23952;SDS011;12163;49.316;6.092;2022-07-25T04:18:53;8.52;;;5.10;;
23952;SDS011;12163;49.316;6.092;2022-07-25T04:21:21;10.95;;;4.97;;
23952;SDS011;12163;49.316;6.092;2022-07-25T04:23:48;7.13;;;4.97;;
23952;SDS011;12163;49.316;6.092;2022-07-25T04:28:41;6.53;;;4.90;;
23952;SDS011;12163;49.316;6.092;2022-07-25T04:31:08;7.80;;;5.35;;
23952;SDS011;12163;49.316;6.092;2022-07-25T04:33:35;9.55;;;5.35;;
23952;SDS011;12163;49.316;6.092;2022-07-25T04:36:02;8.55;;;4.80;;
23952;SDS011;12163;49.316;6.092;2022-07-25T04:38:30;11.35;;;5.40;;
23952;SDS011;12163;49.316;6.092;2022-07-25T04:40:56;13.00;;;5.07;;
23952;SDS011;12163;49.316;6.092;2022-07-25T04:43:23;11.13;;;4.90;;
23952;SDS011;12163;49.316;6.092;2022-07-25T04:45:49;7.75;;;4.60;;
23952;SDS011;12163;49.316;6.092;2022-07-25T04:48:16;9.02;;;5.18;;
23952;SDS011;12163;49.316;6.092;2022-07-25T04:50:43;6.43;;;4.57;;
23952;SDS011;12163;49.316;6.092;2022-07-25T04:53:10;8.13;;;5.20;;
23952;SDS011;12163;49.316;6.092;2022-07-25T04:55:37;6.65;;;4.97;;
23952;SDS011;12163;49.316;6.092;2022-07-25T04:58:04;6.65;;;4.82;;
23952;SDS011;12163;49.316;6.092;2022-07-25T05:00:31;11.25;;;5.10;;
23952;SDS011;12163;49.316;6.092;2022-07-25T05:02:58;8.68;;;5.53;;
23952;SDS011;12163;49.316;6.092;2022-07-25T05:05:25;11.48;;;4.90;;
23952;SDS011;12163;49.316;6.092;2022-07-25T05:07:55;5.93;;;4.20;;
23952;SDS011;12163;49.316;6.092;2022-07-25T05:10:23;8.95;;;5.03;;
23952;SDS011;12163;49.316;6.092;2022-07-25T05:12:51;8.05;;;5.00;;
23952;SDS011;12163;49.316;6.092;2022-07-25T05:15:17;6.10;;;4.60;;
23952;SDS011;12163;49.316;6.092;2022-07-25T05:17:44;10.73;;;5.25;;
23952;SDS011;12163;49.316;6.092;2022-07-25T05:20:12;13.13;;;5.35;;
23952;SDS011;12163;49.316;6.092;2022-07-25T05:22:39;14.57;;;7.35;;
23952;SDS011;12163;49.316;6.092;2022-07-25T05:25:06;8.57;;;6.00;;
23952;SDS011;12163;49.316;6.092;2022-07-25T05:27:34;24.98;;;7.00;;
23952;SDS011;12163;49.316;6.092;2022-07-25T05:30:00;17.83;;;7.82;;
23952;SDS011;12163;49.316;6.092;2022-07-25T05:32:27;11.50;;;6.90;;
23952;SDS011;12163;49.316;6.092;2022-07-25T05:34:53;14.02;;;7.47;;
23952;SDS011;12163;49.316;6.092;2022-07-25T05:37:20;9.35;;;6.93;;
23952;SDS011;12163;49.316;6.092;2022-07-25T05:39:47;15.80;;;6.80;;
23952;SDS011;12163;49.316;6.092;2022-07-25T05:42:13;14.13;;;7.00;;
23952;SDS011;12163;49.316;6.092;2022-07-25T05:44:40;22.33;;;7.82;;
23952;SDS011;12163;49.316;6.092;2022-07-25T05:47:10;14.90;;;6.90;;
23952;SDS011;12163;49.316;6.092;2022-07-25T05:49:37;14.95;;;6.57;;
23952;SDS011;12163;49.316;6.092;2022-07-25T05:52:04;15.32;;;6.82;;
23952;SDS011;12163;49.316;6.092;2022-07-25T05:57:04;20.35;;;7.95;;
23952;SDS011;12163;49.316;6.092;2022-07-25T05:59:31;16.10;;;7.15;;
23952;SDS011;12163;49.316;6.092;2022-07-25T06:01:57;14.73;;;7.30;;
23952;SDS011;12163;49.316;6.092;2022-07-25T06:04:27;18.45;;;7.57;;
23952;SDS011;12163;49.316;6.092;2022-07-25T06:06:53;13.52;;;7.13;;
23952;SDS011;12163;49.316;6.092;2022-07-25T06:09:20;18.73;;;7.72;;
23952;SDS011;12163;49.316;6.092;2022-07-25T06:11:48;15.93;;;7.57;;
23952;SDS011;12163;49.316;6.092;2022-07-25T06:14:25;11.38;;;6.80;;
23952;SDS011;12163;49.316;6.092;2022-07-25T06:16:53;16.67;;;7.15;;
23952;SDS011;12163;49.316;6.092;2022-07-25T06:19:20;13.90;;;8.13;;
23952;SDS011;12163;49.316;6.092;2022-07-25T06:21:46;12.25;;;7.50;;
23952;SDS011;12163;49.316;6.092;2022-07-25T06:24:13;16.45;;;7.50;;
23952;SDS011;12163;49.316;6.092;2022-07-25T06:26:40;14.88;;;6.90;;
23952;SDS011;12163;49.316;6.092;2022-07-25T06:29:08;14.18;;;7.07;;
23952;SDS011;12163;49.316;6.092;2022-07-25T06:34:01;13.57;;;7.75;;
23952;SDS011;12163;49.316;6.092;2022-07-25T06:36:28;13.32;;;8.02;;
23952;SDS011;12163;49.316;6.092;2022-07-25T06:38:58;15.73;;;7.88;;
23952;SDS011;12163;49.316;6.092;2022-07-25T06:41:25;13.75;;;7.75;;
23952;SDS011;12163;49.316;6.092;2022-07-25T06:43:51;18.60;;;7.63;;
23952;SDS011;12163;49.316;6.092;2022-07-25T06:46:18;22.27;;;8.88;;
23952;SDS011;12163;49.316;6.092;2022-07-25T06:48:45;24.08;;;8.88;;
23952;SDS011;12163;49.316;6.092;2022-07-25T06:51:12;32.75;;;8.68;;
23952;SDS011;12163;49.316;6.092;2022-07-25T06:53:38;29.27;;;9.38;;
23952;SDS011;12163;49.316;6.092;2022-07-25T06:56:05;13.75;;;7.43;;
23952;SDS011;12163;49.316;6.092;2022-07-25T07:00:59;20.20;;;7.40;;
23952;SDS011;12163;49.316;6.092;2022-07-25T07:03:26;19.00;;;7.15;;
23952;SDS011;12163;49.316;6.092;2022-07-25T07:05:53;13.70;;;6.78;;
23952;SDS011;12163;49.316;6.092;2022-07-25T07:08:20;19.23;;;6.28;;
23952;SDS011;12163;49.316;6.092;2022-07-25T07:13:13;17.30;;;7.03;;
23952;SDS011;12163;49.316;6.092;2022-07-25T07:15:49;18.15;;;6.55;;
23952;SDS011;12163;49.316;6.092;2022-07-25T07:18:16;14.77;;;6.60;;
23952;SDS011;12163;49.316;6.092;2022-07-25T07:20:43;14.45;;;6.50;;
23952;SDS011;12163;49.316;6.092;2022-07-25T07:23:10;14.95;;;6.50;;
23952;SDS011;12163;49.316;6.092;2022-07-25T07:25:43;19.33;;;7.22;;
23952;SDS011;12163;49.316;6.092;2022-07-25T07:28:12;23.33;;;7.00;;
23952;SDS011;12163;49.316;6.092;2022-07-25T07:30:38;23.20;;;7.30;;
23952;SDS011;12163;49.316;6.092;2022-07-25T07:33:25;22.67;;;7.45;;
23952;SDS011;12163;49.316;6.092;2022-07-25T07:35:51;19.55;;;6.55;;
23952;SDS011;12163;49.316;6.092;2022-07-25T07:40:48;18.55;;;7.60;;
23952;SDS011;12163;49.316;6.092;2022-07-25T07:48:08;17.77;;;7.07;;
23952;SDS011;12163;49.316;6.092;2022-07-25T07:50:34;18.52;;;6.47;;
23952;SDS011;12163;49.316;6.092;2022-07-25T07:53:01;21.05;;;7.47;;
23952;SDS011;12163;49.316;6.092;2022-07-25T07:55:29;17.98;;;6.60;;
23952;SDS011;12163;49.316;6.092;2022-07-25T07:58:12;18.98;;;6.63;;
23952;SDS011;12163;49.316;6.092;2022-07-25T08:03:10;19.63;;;6.55;;
23952;SDS011;12163;49.316;6.092;2022-07-25T08:05:41;18.52;;;6.50;;
23952;SDS011;12163;49.316;6.092;2022-07-25T08:08:10;13.90;;;6.60;;
23952;SDS011;12163;49.316;6.092;2022-07-25T08:13:17;9.88;;;5.43;;
23952;SDS011;12163;49.316;6.092;2022-07-25T08:15:47;10.23;;;5.72;;
23952;SDS011;12163;49.316;6.092;2022-07-25T08:18:15;9.38;;;5.07;;
23952;SDS011;12163;49.316;6.092;2022-07-25T08:20:44;12.68;;;5.50;;
23952;SDS011;12163;49.316;6.092;2022-07-25T08:23:11;9.43;;;5.20;;
23952;SDS011;12163;49.316;6.092;2022-07-25T08:25:38;12.02;;;5.88;;
23952;SDS011;12163;49.316;6.092;2022-07-25T08:28:05;14.85;;;4.82;;
23952;SDS011;12163;49.316;6.092;2022-07-25T08:30:32;11.82;;;5.00;;
23952;SDS011;12163;49.316;6.092;2022-07-25T08:33:01;5.95;;;5.00;;
23952;SDS011;12163;49.316;6.092;2022-07-25T08:35:30;9.82;;;4.68;;
23952;SDS011;12163;49.316;6.092;2022-07-25T08:37:58;9.88;;;5.07;;
23952;SDS011;12163;49.316;6.092;2022-07-25T08:40:28;8.07;;;4.95;;
23952;SDS011;12163;49.316;6.092;2022-07-25T08:42:56;8.48;;;4.80;;
23952;SDS011;12163;49.316;6.092;2022-07-25T08:45:26;7.55;;;4.85;;
23952;SDS011;12163;49.316;6.092;2022-07-25T08:47:54;8.63;;;4.65;;
23952;SDS011;12163;49.316;6.092;2022-07-25T08:50:23;7.90;;;4.70;;
23952;SDS011;12163;49.316;6.092;2022-07-25T08:52:52;11.73;;;4.57;;
23952;SDS011;12163;49.316;6.092;2022-07-25T08:55:35;11.35;;;5.70;;
23952;SDS011;12163;49.316;6.092;2022-07-25T08:58:02;7.72;;;5.00;;
23952;SDS011;12163;49.316;6.092;2022-07-25T09:00:28;7.78;;;4.97;;
23952;SDS011;12163;49.316;6.092;2022-07-25T09:02:56;6.18;;;4.70;;
23952;SDS011;12163;49.316;6.092;2022-07-25T09:05:25;5.63;;;4.90;;
23952;SDS011;12163;49.316;6.092;2022-07-25T09:07:53;6.88;;;4.82;;
23952;SDS011;12163;49.316;6.092;2022-07-25T09:10:25;5.53;;;4.72;;
23952;SDS011;12163;49.316;6.092;2022-07-25T09:15:28;8.15;;;4.47;;
23952;SDS011;12163;49.316;6.092;2022-07-25T09:17:59;6.13;;;4.38;;
23952;SDS011;12163;49.316;6.092;2022-07-25T09:23:05;10.73;;;5.00;;
23952;SDS011;12163;49.316;6.092;2022-07-25T09:25:32;11.05;;;4.50;;
23952;SDS011;12163;49.316;6.092;2022-07-25T09:28:15;9.00;;;4.60;;
23952;SDS011;12163;49.316;6.092;2022-07-25T09:30:53;7.82;;;4.50;;
23952;SDS011;12163;49.316;6.092;2022-07-25T09:33:22;12.18;;;4.43;;
23952;SDS011;12163;49.316;6.092;2022-07-25T09:35:50;5.88;;;4.35;;
23952;SDS011;12163;49.316;6.092;2022-07-25T09:38:19;12.88;;;4.57;;
23952;SDS011;12163;49.316;6.092;2022-07-25T09:40:57;6.75;;;4.78;;
23952;SDS011;12163;49.316;6.092;2022-07-25T09:43:39;12.75;;;4.55;;
23952;SDS011;12163;49.316;6.092;2022-07-25T09:48:36;9.15;;;5.18;;
23952;SDS011;12163;49.316;6.092;2022-07-25T09:51:07;9.15;;;5.15;;
23952;SDS011;12163;49.316;6.092;2022-07-25T09:53:34;7.88;;;4.57;;
23952;SDS011;12163;49.316;6.092;2022-07-25T09:56:01;9.50;;;4.30;;
23952;SDS011;12163;49.316;6.092;2022-07-25T09:58:28;7.22;;;4.95;;
23952;SDS011;12163;49.316;6.092;2022-07-25T10:00:56;6.13;;;4.47;;
23952;SDS011;12163;49.316;6.092;2022-07-25T10:09:19;6.40;;;4.68;;
23952;SDS011;12163;49.316;6.092;2022-07-25T10:14:31;8.57;;;4.72;;
23952;SDS011;12163;49.316;6.092;2022-07-25T10:16:59;5.93;;;4.70;;
23952;SDS011;12163;49.316;6.092;2022-07-25T10:20:00;11.35;;;4.90;;
23952;SDS011;12163;49.316;6.092;2022-07-25T10:22:34;8.27;;;4.60;;
23952;SDS011;12163;49.316;6.092;2022-07-25T10:25:21;10.02;;;5.15;;
23952;SDS011;12163;49.316;6.092;2022-07-25T10:27:49;9.52;;;5.05;;
23952;SDS011;12163;49.316;6.092;2022-07-25T10:30:24;8.55;;;4.78;;
23952;SDS011;12163;49.316;6.092;2022-07-25T10:33:04;7.43;;;5.05;;
23952;SDS011;12163;49.316;6.092;2022-07-25T10:35:37;6.63;;;4.80;;
23952;SDS011;12163;49.316;6.092;2022-07-25T10:38:04;7.25;;;4.80;;
23952;SDS011;12163;49.316;6.092;2022-07-25T10:43:13;7.10;;;4.90;;
23952;SDS011;12163;49.316;6.092;2022-07-25T10:45:54;9.38;;;5.00;;
23952;SDS011;12163;49.316;6.092;2022-07-25T10:48:27;7.57;;;4.90;;
23952;SDS011;12163;49.316;6.092;2022-07-25T10:51:09;14.23;;;4.95;;
23952;SDS011;12163;49.316;6.092;2022-07-25T10:56:11;11.67;;;4.50;;
23952;SDS011;12163;49.316;6.092;2022-07-25T11:33:40;10.20;;;5.22;;
23952;SDS011;12163;49.316;6.092;2022-07-25T11:36:09;9.35;;;5.10;;
23952;SDS011;12163;49.316;6.092;2022-07-25T11:38:37;9.32;;;5.50;;
23952;SDS011;12163;49.316;6.092;2022-07-25T11:41:04;9.85;;;5.57;;
23952;SDS011;12163;49.316;6.092;2022-07-25T11:43:32;18.23;;;5.80;;
23952;SDS011;12163;49.316;6.092;2022-07-25T11:46:02;9.15;;;5.25;;
23952;SDS011;12163;49.316;6.092;2022-07-25T11:48:37;10.50;;;5.53;;
23952;SDS011;12163;49.316;6.092;2022-07-25T11:51:15;12.15;;;5.65;;
23952;SDS011;12163;49.316;6.092;2022-07-25T11:59:02;7.90;;;5.22;;
23952;SDS011;12163;49.316;6.092;2022-07-25T12:04:09;30.40;;;5.47;;
23952;SDS011;12163;49.316;6.092;2022-07-25T12:09:11;8.20;;;4.35;;
23952;SDS011;12163;49.316;6.092;2022-07-25T12:11:45;7.57;;;4.00;;
23952;SDS011;12163;49.316;6.092;2022-07-25T12:14:12;9.25;;;4.20;;
23952;SDS011;12163;49.316;6.092;2022-07-25T12:16:39;9.20;;;4.28;;
23952;SDS011;12163;49.316;6.092;2022-07-25T12:19:16;10.35;;;4.18;;
23952;SDS011;12163;49.316;6.092;2022-07-25T12:21:44;12.90;;;4.03;;
23952;SDS011;12163;49.316;6.092;2022-07-25T12:24:11;12.65;;;4.18;;
23952;SDS011;12163;49.316;6.092;2022-07-25T12:29:05;10.60;;;4.05;;
23952;SDS011;12163;49.316;6.092;2022-07-25T12:31:32;11.75;;;3.80;;
23952;SDS011;12163;49.316;6.092;2022-07-25T12:38:52;13.68;;;3.40;;
23952;SDS011;12163;49.316;6.092;2022-07-25T12:41:18;4.35;;;2.83;;
23952;SDS011;12163;49.316;6.092;2022-07-25T12:43:47;6.55;;;2.90;;
23952;SDS011;12163;49.316;6.092;2022-07-25T12:46:15;8.30;;;2.55;;
23952;SDS011;12163;49.316;6.092;2022-07-25T12:48:42;20.75;;;3.47;;
23952;SDS011;12163;49.316;6.092;2022-07-25T12:51:09;7.50;;;2.47;;
23952;SDS011;12163;49.316;6.092;2022-07-25T12:53:36;6.82;;;2.20;;
23952;SDS011;12163;49.316;6.092;2022-07-25T12:58:34;11.93;;;2.70;;
23952;SDS011;12163;49.316;6.092;2022-07-25T13:01:02;6.57;;;2.28;;
23952;SDS011;12163;49.316;6.092;2022-07-25T13:03:29;12.55;;;2.70;;
23952;SDS011;12163;49.316;6.092;2022-07-25T13:05:56;8.18;;;2.28;;
23952;SDS011;12163;49.316;6.092;2022-07-25T13:08:23;8.77;;;2.33;;
23952;SDS011;12163;49.316;6.092;2022-07-25T13:10:50;4.50;;;2.30;;
23952;SDS011;12163;49.316;6.092;2022-07-25T13:13:16;5.47;;;2.53;;
23952;SDS011;12163;49.316;6.092;2022-07-25T13:15:43;7.22;;;2.22;;
23952;SDS011;12163;49.316;6.092;2022-07-25T13:18:09;7.82;;;2.25;;
23952;SDS011;12163;49.316;6.092;2022-07-25T13:20:36;8.07;;;2.30;;
23952;SDS011;12163;49.316;6.092;2022-07-25T13:27:57;7.45;;;1.70;;
23952;SDS011;12163;49.316;6.092;2022-07-25T13:35:18;7.88;;;2.10;;
23952;SDS011;12163;49.316;6.092;2022-07-25T13:37:47;4.70;;;1.83;;
23952;SDS011;12163;49.316;6.092;2022-07-25T13:40:14;7.28;;;1.98;;
23952;SDS011;12163;49.316;6.092;2022-07-25T13:42:40;5.88;;;2.10;;
23952;SDS011;12163;49.316;6.092;2022-07-25T13:50:01;8.13;;;2.08;;
23952;SDS011;12163;49.316;6.092;2022-07-25T13:57:21;5.78;;;2.00;;
23952;SDS011;12163;49.316;6.092;2022-07-25T13:59:48;5.87;;;1.80;;
23952;SDS011;12163;49.316;6.092;2022-07-25T14:02:14;9.48;;;2.17;;
23952;SDS011;12163;49.316;6.092;2022-07-25T14:07:07;6.10;;;2.05;;
23952;SDS011;12163;49.316;6.092;2022-07-25T14:09:34;5.25;;;1.90;;
23952;SDS011;12163;49.316;6.092;2022-07-25T14:12:01;8.18;;;1.80;;
23952;SDS011;12163;49.316;6.092;2022-07-25T14:14:27;3.88;;;1.80;;
23952;SDS011;12163;49.316;6.092;2022-07-25T14:16:54;6.95;;;1.60;;
23952;SDS011;12163;49.316;6.092;2022-07-25T14:19:22;9.02;;;1.63;;
23952;SDS011;12163;49.316;6.092;2022-07-25T14:24:15;5.93;;;1.60;;
23952;SDS011;12163;49.316;6.092;2022-07-25T14:38:57;3.40;;;1.55;;
23952;SDS011;12163;49.316;6.092;2022-07-25T14:41:24;6.00;;;1.88;;
23952;SDS011;12163;49.316;6.092;2022-07-25T14:43:51;8.40;;;2.00;;
23952;SDS011;12163;49.316;6.092;2022-07-25T14:46:17;5.90;;;1.75;;
23952;SDS011;12163;49.316;6.092;2022-07-25T14:48:45;5.00;;;1.90;;
23952;SDS011;12163;49.316;6.092;2022-07-25T14:51:11;6.68;;;1.77;;
23952;SDS011;12163;49.316;6.092;2022-07-25T14:53:38;5.05;;;1.70;;
23952;SDS011;12163;49.316;6.092;2022-07-25T14:56:05;5.73;;;1.90;;
23952;SDS011;12163;49.316;6.092;2022-07-25T14:58:32;8.27;;;1.92;;
23952;SDS011;12163;49.316;6.092;2022-07-25T15:00:59;4.95;;;1.75;;
23952;SDS011;12163;49.316;6.092;2022-07-25T15:03:26;7.05;;;1.98;;
23952;SDS011;12163;49.316;6.092;2022-07-25T15:05:53;7.95;;;2.00;;
23952;SDS011;12163;49.316;6.092;2022-07-25T15:08:19;6.80;;;1.93;;
23952;SDS011;12163;49.316;6.092;2022-07-25T15:10:46;7.85;;;2.20;;
23952;SDS011;12163;49.316;6.092;2022-07-25T15:13:13;4.43;;;1.90;;
23952;SDS011;12163;49.316;6.092;2022-07-25T15:15:57;8.32;;;2.05;;
23952;SDS011;12163;49.316;6.092;2022-07-25T15:18:24;4.68;;;1.88;;
23952;SDS011;12163;49.316;6.092;2022-07-25T15:20:51;7.47;;;2.00;;
23952;SDS011;12163;49.316;6.092;2022-07-25T15:28:32;10.40;;;2.00;;
23952;SDS011;12163;49.316;6.092;2022-07-25T15:31:00;10.65;;;2.08;;
23952;SDS011;12163;49.316;6.092;2022-07-25T15:33:27;8.33;;;2.10;;
23952;SDS011;12163;49.316;6.092;2022-07-25T15:35:54;20.02;;;2.13;;
23952;SDS011;12163;49.316;6.092;2022-07-25T15:38:21;11.45;;;1.58;;
23952;SDS011;12163;49.316;6.092;2022-07-25T15:43:14;7.28;;;1.67;;
23952;SDS011;12163;49.316;6.092;2022-07-25T15:45:43;7.15;;;1.70;;
23952;SDS011;12163;49.316;6.092;2022-07-25T15:48:11;9.45;;;2.35;;
23952;SDS011;12163;49.316;6.092;2022-07-25T15:50:40;7.28;;;2.10;;
23952;SDS011;12163;49.316;6.092;2022-07-25T15:53:09;5.35;;;1.80;;
23952;SDS011;12163;49.316;6.092;2022-07-25T16:00:30;8.07;;;1.98;;
23952;SDS011;12163;49.316;6.092;2022-07-25T16:02:57;9.60;;;1.95;;
23952;SDS011;12163;49.316;6.092;2022-07-25T16:05:25;10.90;;;1.60;;
23952;SDS011;12163;49.316;6.092;2022-07-25T16:07:52;8.30;;;1.63;;
23952;SDS011;12163;49.316;6.092;2022-07-25T16:10:19;7.03;;;1.75;;
23952;SDS011;12163;49.316;6.092;2022-07-25T16:12:45;5.97;;;1.50;;
23952;SDS011;12163;49.316;6.092;2022-07-25T16:15:12;9.27;;;1.75;;
23952;SDS011;12163;49.316;6.092;2022-07-25T16:17:39;3.65;;;1.45;;
23952;SDS011;12163;49.316;6.092;2022-07-25T16:20:07;3.72;;;1.40;;
23952;SDS011;12163;49.316;6.092;2022-07-25T16:22:35;3.85;;;1.20;;
23952;SDS011;12163;49.316;6.092;2022-07-25T16:27:29;8.13;;;1.33;;
23952;SDS011;12163;49.316;6.092;2022-07-25T16:29:56;3.67;;;1.20;;
23952;SDS011;12163;49.316;6.092;2022-07-25T16:32:22;4.30;;;1.52;;
23952;SDS011;12163;49.316;6.092;2022-07-25T16:34:49;7.60;;;1.20;;
23952;SDS011;12163;49.316;6.092;2022-07-25T16:37:16;7.05;;;1.10;;
23952;SDS011;12163;49.316;6.092;2022-07-25T16:39:42;5.85;;;1.40;;
23952;SDS011;12163;49.316;6.092;2022-07-25T16:42:09;4.25;;;1.33;;
23952;SDS011;12163;49.316;6.092;2022-07-25T16:44:36;5.13;;;1.20;;
23952;SDS011;12163;49.316;6.092;2022-07-25T16:47:02;3.90;;;1.10;;
23952;SDS011;12163;49.316;6.092;2022-07-25T16:49:29;2.47;;;1.10;;
23952;SDS011;12163;49.316;6.092;2022-07-25T16:51:56;2.72;;;1.30;;
23952;SDS011;12163;49.316;6.092;2022-07-25T16:54:22;5.07;;;1.40;;
23952;SDS011;12163;49.316;6.092;2022-07-25T16:56:49;3.85;;;1.35;;
23952;SDS011;12163;49.316;6.092;2022-07-25T16:59:20;7.80;;;1.70;;
23952;SDS011;12163;49.316;6.092;2022-07-25T17:01:48;5.20;;;1.30;;
23952;SDS011;12163;49.316;6.092;2022-07-25T17:04:14;3.08;;;1.08;;
23952;SDS011;12163;49.316;6.092;2022-07-25T17:06:41;4.85;;;1.58;;
23952;SDS011;12163;49.316;6.092;2022-07-25T17:09:08;3.72;;;1.05;;
23952;SDS011;12163;49.316;6.092;2022-07-25T17:11:35;10.82;;;1.63;;
23952;SDS011;12163;49.316;6.092;2022-07-25T17:14:02;4.70;;;1.50;;
23952;SDS011;12163;49.316;6.092;2022-07-25T17:16:30;4.28;;;1.30;;
23952;SDS011;12163;49.316;6.092;2022-07-25T17:18:57;6.18;;;1.20;;
23952;SDS011;12163;49.316;6.092;2022-07-25T17:21:23;6.15;;;1.42;;
23952;SDS011;12163;49.316;6.092;2022-07-25T17:23:50;3.47;;;1.10;;
23952;SDS011;12163;49.316;6.092;2022-07-25T17:26:18;5.43;;;1.08;;
23952;SDS011;12163;49.316;6.092;2022-07-25T17:28:46;8.02;;;1.00;;
23952;SDS011;12163;49.316;6.092;2022-07-25T17:31:13;7.53;;;1.52;;
23952;SDS011;12163;49.316;6.092;2022-07-25T17:33:40;3.70;;;1.38;;
23952;SDS011;12163;49.316;6.092;2022-07-25T17:36:06;6.07;;;1.40;;
23952;SDS011;12163;49.316;6.092;2022-07-25T17:38:33;10.18;;;1.35;;